createdAt,value
2022-11-25T00:00:39.671Z,100126.03
2022-11-25T00:05:41.373Z,100128.03
2022-11-25T00:10:42.920Z,100124.19
2022-11-25T00:15:44.582Z,100125.53
2022-11-25T00:20:46.118Z,100131.75
2022-11-25T00:25:47.808Z,100132.06
2022-11-25T00:30:49.397Z,100138.47
2022-11-25T00:35:51.011Z,100144.53
2022-11-25T00:41:12.969Z,100144.34
2022-11-25T00:46:14.585Z,100156.63
2022-11-25T00:51:16.416Z,100144.84
2022-11-25T00:56:18.089Z,100142.28
2022-11-25T01:01:20.099Z,100143.81
2022-11-25T01:06:26.499Z,100152.41
2022-11-25T01:11:28.826Z,100158.16
2022-11-25T01:16:30.716Z,100167.03
2022-11-25T01:21:34.160Z,100171.22
2022-11-25T01:26:36.410Z,100170.84
2022-11-25T01:31:38.177Z,100191.59
2022-11-25T01:36:40.491Z,100196.06
2022-11-25T01:41:42.099Z,100203.47
2022-11-25T01:46:48.034Z,100194.06
2022-11-25T01:52:26.758Z,100183.41
2022-11-25T01:57:37.503Z,100194.16
2022-11-25T02:02:39.949Z,100198.53
2022-11-25T02:07:44.376Z,100192.41
2022-11-25T02:12:47.602Z,100194.28
2022-11-25T02:17:49.328Z,100184.69
2022-11-25T02:22:54.008Z,100181.59
2022-11-25T02:28:03.313Z,100166.50
2022-11-25T02:33:05.882Z,100168.44
2022-11-25T02:38:09.684Z,100165.50
2022-11-25T02:43:12.663Z,100157.22
2022-11-25T02:48:14.463Z,100171.44
2022-11-25T02:53:16.511Z,100166.31
2022-11-25T02:58:19.045Z,100163.44
2022-11-25T03:03:20.690Z,100157.75
2022-11-25T03:08:22.270Z,100153.75
2022-11-25T03:13:24.042Z,100171.47
2022-11-25T03:18:25.725Z,100157.69
2022-11-25T03:23:27.489Z,100165.16
2022-11-25T03:28:29.043Z,100148.31
2022-11-25T03:33:31.958Z,100154.41
2022-11-25T03:38:33.693Z,100157.81
2022-11-25T03:43:35.804Z,100164.91
2022-11-25T03:48:38.311Z,100153.44
2022-11-25T03:53:40.343Z,100171.03
2022-11-25T03:58:44.112Z,100169.91
2022-11-25T04:03:47.400Z,100162.34
2022-11-25T04:08:49.007Z,100154.91
2022-11-25T04:13:50.908Z,100157.66
2022-11-25T04:18:52.658Z,100144.03
2022-11-25T04:23:54.343Z,100143.00
2022-11-25T04:28:56.392Z,100130.72
2022-11-25T04:33:59.356Z,100121.28
2022-11-25T04:39:01.102Z,100121.78
2022-11-25T04:44:02.815Z,100115.50
2022-11-25T04:49:04.741Z,100115.09
2022-11-25T04:54:07.100Z,100126.41
2022-11-25T04:59:29.165Z,100140.28
2022-11-25T05:04:31.115Z,100145.00
2022-11-25T05:09:32.827Z,100154.97
2022-11-25T05:14:55.263Z,100164.06
2022-11-25T05:19:58.822Z,100172.50
2022-11-25T05:25:00.676Z,100182.44
2022-11-25T05:30:03.175Z,100192.56
2022-11-25T05:35:05.212Z,100204.69
2022-11-25T05:40:07.665Z,100216.44
2022-11-25T05:45:31.676Z,100202.81
2022-11-25T05:50:33.481Z,100206.19
2022-11-25T05:55:39.283Z,100214.94
2022-11-25T06:00:48.139Z,100225.41
2022-11-25T06:05:51.016Z,100231.13
2022-11-25T06:10:52.936Z,100238.88
2022-11-25T06:15:54.595Z,100238.22
2022-11-25T06:20:57.793Z,100243.28
2022-11-25T06:26:13.809Z,100255.25
2022-11-25T06:31:19.488Z,100258.44
2022-11-25T06:36:31.367Z,100264.97
2022-11-25T06:41:32.929Z,100260.72
2022-11-25T06:46:34.729Z,100271.97
2022-11-25T06:51:36.328Z,100310.97
2022-11-25T06:56:39.362Z,100304.53
2022-11-25T07:01:40.940Z,100301.56
2022-11-25T07:06:42.587Z,100317.53
2022-11-25T07:11:44.148Z,100308.00
2022-11-25T07:16:46.580Z,100316.75
2022-11-25T07:21:48.204Z,100304.56
2022-11-25T07:26:49.766Z,100301.88
2022-11-25T07:31:51.320Z,100299.53
2022-11-25T07:36:53.005Z,100301.63
2022-11-25T07:41:54.815Z,100306.78
2022-11-25T07:46:57.569Z,100310.47
2022-11-25T07:52:04.427Z,100329.75
2022-11-25T07:57:06.012Z,100342.06
2022-11-25T08:02:09.374Z,100354.44
2022-11-25T08:07:11.413Z,100359.06
2022-11-25T08:12:13.004Z,100367.28
2022-11-25T08:17:16.955Z,100350.13
2022-11-25T08:22:18.564Z,100357.31
2022-11-25T08:27:20.114Z,100353.13
2022-11-25T08:32:21.676Z,100344.81
2022-11-25T08:37:23.250Z,100350.56
2022-11-25T08:42:24.912Z,100371.69
2022-11-25T08:47:26.645Z,100371.81
2022-11-25T08:52:29.310Z,100376.59
2022-11-25T08:57:30.991Z,100391.16
2022-11-25T09:02:32.995Z,100390.63
2022-11-25T09:07:34.636Z,100404.97
2022-11-25T09:12:36.210Z,100426.72
2022-11-25T09:17:37.792Z,100450.25
2022-11-25T09:22:39.353Z,100459.28
2022-11-25T09:27:40.898Z,100455.28
2022-11-25T09:32:43.140Z,100461.75
2022-11-25T09:37:45.068Z,100458.78
2022-11-25T09:43:31.727Z,100467.13
2022-11-25T09:48:39.468Z,100472.66
2022-11-25T09:54:01.681Z,100475.56
2022-11-25T09:59:18.428Z,100483.63
2022-11-25T10:04:46.983Z,100483.66
2022-11-25T10:09:56.627Z,100491.66
2022-11-25T10:15:04.796Z,100492.56
2022-11-25T10:20:33.376Z,100500.63
2022-11-25T10:25:42.839Z,100501.09
2022-11-25T10:31:21.691Z,100511.56
2022-11-25T10:36:27.417Z,100523.31
2022-11-25T10:41:35.266Z,100522.69
2022-11-25T10:47:12.975Z,100521.25
2022-11-25T10:52:14.223Z,100521.31
2022-11-25T10:57:20.790Z,100531.31
2022-11-25T11:02:25.128Z,100542.28
2022-11-25T11:07:29.914Z,100541.22
2022-11-25T11:12:31.671Z,100548.88
2022-11-25T11:17:37.424Z,100545.38
2022-11-25T11:22:50.062Z,100549.78
2022-11-25T11:27:56.816Z,100551.91
2022-11-25T11:33:00.297Z,100556.34
2022-11-25T11:38:26.969Z,100548.56
2022-11-25T11:43:34.429Z,100573.81
2022-11-25T11:48:50.056Z,100567.66
2022-11-25T11:54:08.188Z,100585.91
2022-11-25T11:59:46.215Z,100596.56
2022-11-25T12:05:13.960Z,100601.56
2022-11-25T12:10:15.592Z,100611.19
2022-11-25T12:16:11.251Z,100609.50
2022-11-25T12:22:07.374Z,100621.22
2022-11-25T12:27:18.404Z,100633.19
2022-11-25T12:32:21.543Z,100639.03
2022-11-25T12:37:45.644Z,100644.38
2022-11-25T12:42:49.464Z,100655.16
2022-11-25T12:47:52.152Z,100673.63
2022-11-25T12:53:12.520Z,100694.13
2022-11-25T12:58:37.045Z,100715.38
2022-11-25T13:04:00.806Z,100730.81
2022-11-25T13:09:32.990Z,100741.16
2022-11-25T13:14:59.999Z,100745.31
2022-11-25T13:20:32.960Z,100743.38
2022-11-25T13:25:37.265Z,100743.19
2022-11-25T13:30:39.543Z,100750.81
2022-11-25T13:35:44.155Z,100763.94
2022-11-25T13:41:04.290Z,100763.31
2022-11-25T13:46:06.080Z,100773.50
2022-11-25T13:51:19.070Z,100772.69
2022-11-25T13:56:20.589Z,100779.88
2022-11-25T14:01:29.972Z,100781.78
2022-11-25T14:07:00.433Z,100812.72
2022-11-25T14:12:07.878Z,100826.66
2022-11-25T14:17:59.430Z,100826.88
2022-11-25T14:23:26.507Z,100836.16
2022-11-25T14:28:54.833Z,100843.09
2022-11-25T14:34:15.459Z,100839.50
2022-11-25T14:39:33.914Z,100849.81
2022-11-25T14:44:44.756Z,100867.06
2022-11-25T14:50:18.814Z,100846.03
2022-11-25T14:55:31.978Z,100847.72
2022-11-25T15:00:33.824Z,100847.72
2022-11-25T15:05:38.220Z,100842.66
2022-11-25T15:10:53.369Z,100856.97
2022-11-25T15:15:56.268Z,100860.31
2022-11-25T15:20:59.748Z,100862.19
2022-11-25T15:26:02.810Z,100854.41
2022-11-25T15:31:16.446Z,100872.47
2022-11-25T15:36:18.216Z,100875.38
2022-11-25T15:41:20.150Z,100881.69
2022-11-25T15:46:23.669Z,100877.25
2022-11-25T15:51:41.635Z,100876.38
2022-11-25T15:56:47.562Z,100861.41
2022-11-25T16:01:49.179Z,100866.81
2022-11-25T16:07:00.137Z,100856.47
2022-11-25T16:12:06.670Z,100848.00
2022-11-25T16:17:12.552Z,100847.38
2022-11-25T16:22:17.547Z,100843.38
2022-11-25T16:27:28.431Z,100822.41
2022-11-25T16:32:33.987Z,100817.59
2022-11-25T16:37:38.677Z,100817.22
2022-11-25T16:42:40.688Z,100812.66
2022-11-25T16:47:42.346Z,100812.06
2022-11-25T16:52:44.395Z,100795.13
2022-11-25T16:57:46.309Z,100805.88
2022-11-25T17:02:47.978Z,100816.84
2022-11-25T17:07:53.428Z,100826.31
2022-11-25T17:12:56.092Z,100833.81
2022-11-25T17:17:58.954Z,100830.25
2022-11-25T17:23:00.640Z,100839.91
2022-11-25T17:28:02.811Z,100838.41
2022-11-25T17:33:14.863Z,100849.97
2022-11-25T17:38:26.771Z,100854.25
2022-11-25T17:43:34.358Z,100866.75
2022-11-25T17:48:36.460Z,100869.19
2022-11-25T17:53:39.938Z,100885.63
2022-11-25T17:58:41.826Z,100904.88
2022-11-25T18:03:43.553Z,100916.41
2022-11-25T18:08:45.254Z,100929.63
2022-11-25T18:13:51.602Z,100931.31
2022-11-25T18:18:53.407Z,100926.25
2022-11-25T18:23:55.297Z,100933.56
2022-11-25T18:28:57.295Z,100940.59
2022-11-25T18:33:59.057Z,100957.78
2022-11-25T18:39:00.745Z,100980.13
2022-11-25T18:44:04.421Z,100976.19
2022-11-25T18:49:13.729Z,100978.69
2022-11-25T18:54:16.835Z,100983.25
2022-11-25T18:59:27.259Z,101001.41
2022-11-25T19:04:29.107Z,100996.22
2022-11-25T19:09:31.527Z,101001.91
2022-11-25T19:14:39.544Z,101009.09
2022-11-25T19:19:44.786Z,101012.44
2022-11-25T19:24:51.407Z,101021.00
2022-11-25T19:29:53.205Z,101030.53
2022-11-25T19:35:03.021Z,101042.56
2022-11-25T19:40:09.412Z,101048.78
2022-11-25T19:45:13.588Z,101073.56
2022-11-25T19:50:29.007Z,101088.81
2022-11-25T19:55:32.392Z,101098.91
2022-11-25T20:00:43.614Z,101108.50
2022-11-25T20:05:46.202Z,101118.66
2022-11-25T20:10:48.770Z,101128.47
2022-11-25T20:15:51.146Z,101135.91
2022-11-25T20:21:05.489Z,101143.91
2022-11-25T20:26:07.455Z,101153.56
2022-11-25T20:31:12.018Z,101164.78
2022-11-25T20:36:17.285Z,101172.06
2022-11-25T20:41:24.366Z,101179.66
2022-11-25T20:46:30.108Z,101186.75
2022-11-25T20:51:32.013Z,101192.44
2022-11-25T20:56:34.461Z,101199.78
2022-11-25T21:01:36.290Z,101203.41
2022-11-25T21:06:41.193Z,101209.72
2022-11-25T21:11:43.381Z,101220.16
2022-11-25T21:16:46.505Z,101232.03
2022-11-25T21:21:50.839Z,101259.00
2022-11-25T21:26:53.081Z,101262.88
2022-11-25T21:31:54.968Z,101264.84
2022-11-25T21:36:56.896Z,101277.09
2022-11-25T21:42:03.678Z,101285.91
2022-11-25T21:47:14.016Z,101280.06
2022-11-25T21:52:17.228Z,101293.72
2022-11-25T21:57:31.369Z,101300.88
2022-11-25T22:02:34.531Z,101317.91
2022-11-25T22:07:36.345Z,101318.56
2022-11-25T22:12:41.562Z,101322.88
2022-11-25T22:17:44.727Z,101320.63
2022-11-25T22:22:46.664Z,101333.69
2022-11-25T22:27:49.009Z,101320.94
2022-11-25T22:33:01.263Z,101340.03
2022-11-25T22:38:02.939Z,101336.59
2022-11-25T22:43:04.876Z,101340.56
2022-11-25T22:48:06.898Z,101349.47
2022-11-25T22:53:17.617Z,101350.78
2022-11-25T22:58:20.466Z,101354.13
2022-11-25T23:03:29.671Z,101346.50
2022-11-25T23:08:32.037Z,101351.59
2022-11-25T23:13:34.704Z,101361.28
2022-11-25T23:18:46.328Z,101353.81
2022-11-25T23:23:50.858Z,101343.75
2022-11-25T23:28:52.481Z,101339.84
2022-11-25T23:33:54.191Z,101340.34
2022-11-25T23:39:03.672Z,101344.63
2022-11-25T23:44:17.460Z,101351.31
2022-11-25T23:49:26.606Z,101365.16
2022-11-25T23:54:40.683Z,101365.72
2022-11-25T23:59:43.540Z,101365.38
